sensor_id;sensor_type;location;lat;lon;timestamp;temperature;humidity
49218;DHT22;35045;51.194;7.268;2023-12-20T00:00:02;7.20;99.90
49218;DHT22;35045;51.194;7.268;2023-12-20T00:02:29;7.10;99.90
49218;DHT22;35045;51.194;7.268;2023-12-20T00:04:55;7.10;99.90
49218;DHT22;35045;51.194;7.268;2023-12-20T00:07:21;7.10;99.90
49218;DHT22;35045;51.194;7.268;2023-12-20T00:09:48;7.10;99.90
49218;DHT22;35045;51.194;7.268;2023-12-20T00:12:14;7.20;99.90
49218;DHT22;35045;51.194;7.268;2023-12-20T00:14:40;7.10;99.90
49218;DHT22;35045;51.194;7.268;2023-12-20T00:17:06;7.10;99.90
49218;DHT22;35045;51.194;7.268;2023-12-20T00:19:33;7.00;99.90
49218;DHT22;35045;51.194;7.268;2023-12-20T00:22:00;6.80;99.90
49218;DHT22;35045;51.194;7.268;2023-12-20T00:24:26;6.70;99.90
49218;DHT22;35045;51.194;7.268;2023-12-20T00:26:53;6.60;99.90
49218;DHT22;35045;51.194;7.268;2023-12-20T00:29:19;6.50;99.90
49218;DHT22;35045;51.194;7.268;2023-12-20T00:31:45;6.50;99.90
49218;DHT22;35045;51.194;7.268;2023-12-20T00:34:12;6.50;99.90
49218;DHT22;35045;51.194;7.268;2023-12-20T00:36:38;6.40;99.90
49218;DHT22;35045;51.194;7.268;2023-12-20T00:39:04;6.40;99.90
49218;DHT22;35045;51.194;7.268;2023-12-20T00:41:30;6.40;99.90
49218;DHT22;35045;51.194;7.268;2023-12-20T00:43:57;6.50;99.90
49218;DHT22;35045;51.194;7.268;2023-12-20T00:46:23;6.50;99.90
49218;DHT22;35045;51.194;7.268;2023-12-20T00:48:50;6.50;99.90
49218;DHT22;35045;51.194;7.268;2023-12-20T00:51:16;6.40;99.90
49218;DHT22;35045;51.194;7.268;2023-12-20T00:53:42;6.30;99.90
49218;DHT22;35045;51.194;7.268;2023-12-20T00:56:09;6.40;99.90
49218;DHT22;35045;51.194;7.268;2023-12-20T00:58:35;6.40;99.90
49218;DHT22;35045;51.194;7.268;2023-12-20T01:01:01;6.40;99.90
49218;DHT22;35045;51.194;7.268;2023-12-20T01:03:28;6.30;99.90
49218;DHT22;35045;51.194;7.268;2023-12-20T01:05:54;6.30;99.90
49218;DHT22;35045;51.194;7.268;2023-12-20T01:08:20;6.20;99.90
49218;DHT22;35045;51.194;7.268;2023-12-20T01:10:46;6.30;99.90
49218;DHT22;35045;51.194;7.268;2023-12-20T01:13:13;6.20;99.90
49218;DHT22;35045;51.194;7.268;2023-12-20T01:15:39;6.20;99.90
49218;DHT22;35045;51.194;7.268;2023-12-20T01:18:05;6.10;99.90
49218;DHT22;35045;51.194;7.268;2023-12-20T01:20:31;6.10;99.90
49218;DHT22;35045;51.194;7.268;2023-12-20T01:22:58;6.00;99.90
49218;DHT22;35045;51.194;7.268;2023-12-20T01:25:24;6.00;99.90
49218;DHT22;35045;51.194;7.268;2023-12-20T01:27:50;6.00;99.90
49218;DHT22;35045;51.194;7.268;2023-12-20T01:30:16;6.00;99.90
49218;DHT22;35045;51.194;7.268;2023-12-20T01:32:43;6.00;99.90
49218;DHT22;35045;51.194;7.268;2023-12-20T01:35:09;6.00;99.90
49218;DHT22;35045;51.194;7.268;2023-12-20T01:37:35;6.10;99.90
49218;DHT22;35045;51.194;7.268;2023-12-20T01:40:01;6.20;99.90
49218;DHT22;35045;51.194;7.268;2023-12-20T01:42:28;6.20;99.90
49218;DHT22;35045;51.194;7.268;2023-12-20T01:44:55;6.20;99.90
49218;DHT22;35045;51.194;7.268;2023-12-20T01:47:21;6.30;99.90
49218;DHT22;35045;51.194;7.268;2023-12-20T01:49:49;6.10;99.90
49218;DHT22;35045;51.194;7.268;2023-12-20T01:52:16;6.10;99.90
49218;DHT22;35045;51.194;7.268;2023-12-20T01:54:42;6.00;99.90
49218;DHT22;35045;51.194;7.268;2023-12-20T01:57:09;6.00;99.90
49218;DHT22;35045;51.194;7.268;2023-12-20T01:59:37;6.00;99.90
49218;DHT22;35045;51.194;7.268;2023-12-20T02:02:05;6.00;99.90
49218;DHT22;35045;51.194;7.268;2023-12-20T02:04:31;6.00;99.90
49218;DHT22;35045;51.194;7.268;2023-12-20T02:06:58;5.90;99.90
49218;DHT22;35045;51.194;7.268;2023-12-20T02:09:25;5.90;99.90
49218;DHT22;35045;51.194;7.268;2023-12-20T02:11:52;5.90;99.90
49218;DHT22;35045;51.194;7.268;2023-12-20T02:14:18;6.00;99.90
49218;DHT22;35045;51.194;7.268;2023-12-20T02:16:45;5.90;99.90
49218;DHT22;35045;51.194;7.268;2023-12-20T02:19:14;5.90;99.90
49218;DHT22;35045;51.194;7.268;2023-12-20T02:21:41;5.90;99.90
49218;DHT22;35045;51.194;7.268;2023-12-20T02:24:07;6.00;99.90
49218;DHT22;35045;51.194;7.268;2023-12-20T02:26:34;5.90;99.90
49218;DHT22;35045;51.194;7.268;2023-12-20T02:29:00;5.80;99.90
49218;DHT22;35045;51.194;7.268;2023-12-20T02:31:27;5.80;99.90
49218;DHT22;35045;51.194;7.268;2023-12-20T02:33:53;5.80;99.90
49218;DHT22;35045;51.194;7.268;2023-12-20T02:36:19;5.70;99.90
49218;DHT22;35045;51.194;7.268;2023-12-20T02:38:45;5.70;99.90
49218;DHT22;35045;51.194;7.268;2023-12-20T02:41:12;5.60;99.90
49218;DHT22;35045;51.194;7.268;2023-12-20T02:43:39;5.60;99.90
49218;DHT22;35045;51.194;7.268;2023-12-20T02:46:05;5.50;99.90
49218;DHT22;35045;51.194;7.268;2023-12-20T02:48:32;5.40;99.90
49218;DHT22;35045;51.194;7.268;2023-12-20T02:50:58;5.50;99.90
49218;DHT22;35045;51.194;7.268;2023-12-20T02:53:24;5.50;99.90
49218;DHT22;35045;51.194;7.268;2023-12-20T02:55:50;5.40;99.90
49218;DHT22;35045;51.194;7.268;2023-12-20T02:58:17;5.40;99.90
49218;DHT22;35045;51.194;7.268;2023-12-20T03:00:43;5.50;99.90
49218;DHT22;35045;51.194;7.268;2023-12-20T03:03:10;5.40;99.90
49218;DHT22;35045;51.194;7.268;2023-12-20T03:05:36;5.40;99.90
49218;DHT22;35045;51.194;7.268;2023-12-20T03:08:02;5.40;99.90
49218;DHT22;35045;51.194;7.268;2023-12-20T03:10:29;5.40;99.90
49218;DHT22;35045;51.194;7.268;2023-12-20T03:12:55;5.40;99.90
49218;DHT22;35045;51.194;7.268;2023-12-20T03:15:21;5.40;99.90
49218;DHT22;35045;51.194;7.268;2023-12-20T03:17:47;5.40;99.90
49218;DHT22;35045;51.194;7.268;2023-12-20T03:20:13;5.40;99.90
49218;DHT22;35045;51.194;7.268;2023-12-20T03:22:40;5.40;99.90
49218;DHT22;35045;51.194;7.268;2023-12-20T03:25:06;5.40;99.90
49218;DHT22;35045;51.194;7.268;2023-12-20T03:27:32;5.40;99.90
49218;DHT22;35045;51.194;7.268;2023-12-20T03:29:59;5.40;99.90
49218;DHT22;35045;51.194;7.268;2023-12-20T03:32:25;5.30;99.90
49218;DHT22;35045;51.194;7.268;2023-12-20T03:34:51;5.30;99.90
49218;DHT22;35045;51.194;7.268;2023-12-20T03:37:17;5.30;99.90
49218;DHT22;35045;51.194;7.268;2023-12-20T03:39:43;5.30;99.90
49218;DHT22;35045;51.194;7.268;2023-12-20T03:42:10;5.30;99.90
49218;DHT22;35045;51.194;7.268;2023-12-20T03:44:38;5.20;99.90
49218;DHT22;35045;51.194;7.268;2023-12-20T03:47:05;5.20;99.90
49218;DHT22;35045;51.194;7.268;2023-12-20T03:49:31;5.10;99.90
49218;DHT22;35045;51.194;7.268;2023-12-20T03:51:57;5.10;99.90
49218;DHT22;35045;51.194;7.268;2023-12-20T03:54:24;5.10;99.90
49218;DHT22;35045;51.194;7.268;2023-12-20T03:56:50;5.10;99.90
49218;DHT22;35045;51.194;7.268;2023-12-20T03:59:17;5.10;99.90
49218;DHT22;35045;51.194;7.268;2023-12-20T04:01:44;5.00;99.90
49218;DHT22;35045;51.194;7.268;2023-12-20T04:04:13;5.10;99.90
49218;DHT22;35045;51.194;7.268;2023-12-20T04:06:40;5.10;99.90
49218;DHT22;35045;51.194;7.268;2023-12-20T04:09:06;5.10;99.90
49218;DHT22;35045;51.194;7.268;2023-12-20T04:11:35;5.10;99.90
49218;DHT22;35045;51.194;7.268;2023-12-20T04:14:02;5.10;99.90
49218;DHT22;35045;51.194;7.268;2023-12-20T04:16:28;5.10;99.90
49218;DHT22;35045;51.194;7.268;2023-12-20T04:18:54;5.10;99.90
49218;DHT22;35045;51.194;7.268;2023-12-20T04:21:20;5.10;99.90
49218;DHT22;35045;51.194;7.268;2023-12-20T04:23:46;5.10;99.90
49218;DHT22;35045;51.194;7.268;2023-12-20T04:26:13;5.10;99.90
49218;DHT22;35045;51.194;7.268;2023-12-20T04:28:39;5.20;99.90
49218;DHT22;35045;51.194;7.268;2023-12-20T04:31:05;5.10;99.90
49218;DHT22;35045;51.194;7.268;2023-12-20T04:33:31;5.10;99.90
49218;DHT22;35045;51.194;7.268;2023-12-20T04:35:58;5.20;99.90
49218;DHT22;35045;51.194;7.268;2023-12-20T04:38:24;5.10;99.90
49218;DHT22;35045;51.194;7.268;2023-12-20T04:40:50;5.10;99.90
49218;DHT22;35045;51.194;7.268;2023-12-20T04:43:17;5.20;99.90
49218;DHT22;35045;51.194;7.268;2023-12-20T04:45:43;5.20;99.90
49218;DHT22;35045;51.194;7.268;2023-12-20T04:48:09;5.20;99.90
49218;DHT22;35045;51.194;7.268;2023-12-20T04:50:36;5.20;99.90
49218;DHT22;35045;51.194;7.268;2023-12-20T04:53:02;5.10;99.90
49218;DHT22;35045;51.194;7.268;2023-12-20T04:55:28;5.10;99.90
49218;DHT22;35045;51.194;7.268;2023-12-20T04:57:54;5.10;99.90
49218;DHT22;35045;51.194;7.268;2023-12-20T05:00:21;5.10;99.90
49218;DHT22;35045;51.194;7.268;2023-12-20T05:02:47;5.10;99.90
49218;DHT22;35045;51.194;7.268;2023-12-20T05:05:13;5.00;99.90
49218;DHT22;35045;51.194;7.268;2023-12-20T05:07:41;5.00;99.90
49218;DHT22;35045;51.194;7.268;2023-12-20T05:10:07;5.00;99.90
49218;DHT22;35045;51.194;7.268;2023-12-20T05:12:34;5.00;99.90
49218;DHT22;35045;51.194;7.268;2023-12-20T05:15:01;5.00;99.90
49218;DHT22;35045;51.194;7.268;2023-12-20T05:17:27;5.00;99.90
49218;DHT22;35045;51.194;7.268;2023-12-20T05:19:53;4.90;99.90
49218;DHT22;35045;51.194;7.268;2023-12-20T05:22:19;5.00;99.90
49218;DHT22;35045;51.194;7.268;2023-12-20T05:24:46;4.90;99.90
49218;DHT22;35045;51.194;7.268;2023-12-20T05:27:12;4.90;99.90
49218;DHT22;35045;51.194;7.268;2023-12-20T05:29:38;5.00;99.90
49218;DHT22;35045;51.194;7.268;2023-12-20T05:32:05;4.90;99.90
49218;DHT22;35045;51.194;7.268;2023-12-20T05:34:31;4.90;99.90
49218;DHT22;35045;51.194;7.268;2023-12-20T05:36:58;4.80;99.90
49218;DHT22;35045;51.194;7.268;2023-12-20T05:39:24;4.80;99.90
49218;DHT22;35045;51.194;7.268;2023-12-20T05:41:51;4.90;99.90
49218;DHT22;35045;51.194;7.268;2023-12-20T05:44:17;4.90;99.90
49218;DHT22;35045;51.194;7.268;2023-12-20T05:46:43;4.90;99.90
49218;DHT22;35045;51.194;7.268;2023-12-20T05:49:09;4.90;99.90
49218;DHT22;35045;51.194;7.268;2023-12-20T05:51:36;4.90;99.90
49218;DHT22;35045;51.194;7.268;2023-12-20T05:54:03;4.80;99.90
49218;DHT22;35045;51.194;7.268;2023-12-20T05:56:30;4.90;99.90
49218;DHT22;35045;51.194;7.268;2023-12-20T05:58:56;4.90;99.90
49218;DHT22;35045;51.194;7.268;2023-12-20T06:01:23;4.90;99.90
49218;DHT22;35045;51.194;7.268;2023-12-20T06:03:49;4.90;99.90
49218;DHT22;35045;51.194;7.268;2023-12-20T06:06:16;4.90;99.90
49218;DHT22;35045;51.194;7.268;2023-12-20T06:08:43;4.80;99.90
49218;DHT22;35045;51.194;7.268;2023-12-20T06:11:10;4.80;99.90
49218;DHT22;35045;51.194;7.268;2023-12-20T06:13:36;4.80;99.90
49218;DHT22;35045;51.194;7.268;2023-12-20T06:16:05;4.80;99.90
49218;DHT22;35045;51.194;7.268;2023-12-20T06:18:31;4.90;99.90
49218;DHT22;35045;51.194;7.268;2023-12-20T06:20:57;4.90;99.90
49218;DHT22;35045;51.194;7.268;2023-12-20T06:23:23;4.80;99.90
49218;DHT22;35045;51.194;7.268;2023-12-20T06:25:50;4.90;99.90
49218;DHT22;35045;51.194;7.268;2023-12-20T06:28:16;4.90;99.90
49218;DHT22;35045;51.194;7.268;2023-12-20T06:30:42;4.90;99.90
49218;DHT22;35045;51.194;7.268;2023-12-20T06:33:08;4.90;99.90
49218;DHT22;35045;51.194;7.268;2023-12-20T06:35:36;4.90;99.90
49218;DHT22;35045;51.194;7.268;2023-12-20T06:38:02;4.80;99.90
49218;DHT22;35045;51.194;7.268;2023-12-20T06:40:29;4.90;99.90
49218;DHT22;35045;51.194;7.268;2023-12-20T06:42:55;4.90;99.90
49218;DHT22;35045;51.194;7.268;2023-12-20T06:45:23;4.80;99.90
49218;DHT22;35045;51.194;7.268;2023-12-20T06:47:50;4.80;99.90
49218;DHT22;35045;51.194;7.268;2023-12-20T06:50:16;4.80;99.90
49218;DHT22;35045;51.194;7.268;2023-12-20T06:52:42;4.90;99.90
49218;DHT22;35045;51.194;7.268;2023-12-20T06:55:08;4.90;99.90
49218;DHT22;35045;51.194;7.268;2023-12-20T06:57:35;4.90;99.90
49218;DHT22;35045;51.194;7.268;2023-12-20T07:00:03;4.80;99.90
49218;DHT22;35045;51.194;7.268;2023-12-20T07:02:30;4.80;99.90
49218;DHT22;35045;51.194;7.268;2023-12-20T07:04:56;4.80;99.90
49218;DHT22;35045;51.194;7.268;2023-12-20T07:07:23;4.80;99.90
49218;DHT22;35045;51.194;7.268;2023-12-20T07:09:50;4.90;99.90
49218;DHT22;35045;51.194;7.268;2023-12-20T07:12:16;4.80;99.90
49218;DHT22;35045;51.194;7.268;2023-12-20T07:14:45;4.80;99.90
49218;DHT22;35045;51.194;7.268;2023-12-20T07:17:11;4.90;99.90
49218;DHT22;35045;51.194;7.268;2023-12-20T07:19:40;4.90;99.90
49218;DHT22;35045;51.194;7.268;2023-12-20T07:22:06;4.80;99.90
49218;DHT22;35045;51.194;7.268;2023-12-20T07:24:34;4.80;99.90
49218;DHT22;35045;51.194;7.268;2023-12-20T07:27:02;4.90;99.90
49218;DHT22;35045;51.194;7.268;2023-12-20T07:29:28;4.90;99.90
49218;DHT22;35045;51.194;7.268;2023-12-20T07:31:54;4.90;99.90
49218;DHT22;35045;51.194;7.268;2023-12-20T07:34:21;4.90;99.90
49218;DHT22;35045;51.194;7.268;2023-12-20T07:36:47;4.90;99.90
49218;DHT22;35045;51.194;7.268;2023-12-20T07:39:14;4.90;99.90
49218;DHT22;35045;51.194;7.268;2023-12-20T07:41:40;5.00;99.90
49218;DHT22;35045;51.194;7.268;2023-12-20T07:44:07;5.00;99.90
49218;DHT22;35045;51.194;7.268;2023-12-20T07:46:33;4.90;99.90
49218;DHT22;35045;51.194;7.268;2023-12-20T07:48:59;5.00;99.90
49218;DHT22;35045;51.194;7.268;2023-12-20T07:51:26;4.90;99.90
49218;DHT22;35045;51.194;7.268;2023-12-20T07:53:52;5.00;99.90
49218;DHT22;35045;51.194;7.268;2023-12-20T07:56:19;4.90;99.90
49218;DHT22;35045;51.194;7.268;2023-12-20T07:58:46;5.00;99.90
49218;DHT22;35045;51.194;7.268;2023-12-20T08:01:16;5.00;99.90
49218;DHT22;35045;51.194;7.268;2023-12-20T08:03:42;4.90;99.90
49218;DHT22;35045;51.194;7.268;2023-12-20T08:06:08;4.90;99.90
49218;DHT22;35045;51.194;7.268;2023-12-20T08:08:34;4.90;99.90
49218;DHT22;35045;51.194;7.268;2023-12-20T08:11:01;5.00;99.90
49218;DHT22;35045;51.194;7.268;2023-12-20T08:13:28;5.00;99.90
49218;DHT22;35045;51.194;7.268;2023-12-20T08:15:55;5.00;99.90
49218;DHT22;35045;51.194;7.268;2023-12-20T08:18:22;5.00;99.90
49218;DHT22;35045;51.194;7.268;2023-12-20T08:20:49;5.00;99.90
49218;DHT22;35045;51.194;7.268;2023-12-20T08:23:15;5.00;99.90
49218;DHT22;35045;51.194;7.268;2023-12-20T08:25:42;5.00;99.90
49218;DHT22;35045;51.194;7.268;2023-12-20T08:28:08;5.00;99.90
49218;DHT22;35045;51.194;7.268;2023-12-20T08:30:34;5.00;99.90
49218;DHT22;35045;51.194;7.268;2023-12-20T08:33:00;5.00;99.90
49218;DHT22;35045;51.194;7.268;2023-12-20T08:35:27;5.00;99.90
49218;DHT22;35045;51.194;7.268;2023-12-20T08:37:53;5.00;99.90
49218;DHT22;35045;51.194;7.268;2023-12-20T08:40:19;5.00;99.90
49218;DHT22;35045;51.194;7.268;2023-12-20T08:42:46;5.00;99.90
49218;DHT22;35045;51.194;7.268;2023-12-20T08:45:12;5.00;99.90
49218;DHT22;35045;51.194;7.268;2023-12-20T08:47:39;5.00;99.90
49218;DHT22;35045;51.194;7.268;2023-12-20T08:50:07;5.00;99.90
49218;DHT22;35045;51.194;7.268;2023-12-20T08:52:33;5.00;99.90
49218;DHT22;35045;51.194;7.268;2023-12-20T08:55:00;5.00;99.90
49218;DHT22;35045;51.194;7.268;2023-12-20T08:57:26;5.00;99.90
49218;DHT22;35045;51.194;7.268;2023-12-20T08:59:52;5.00;99.90
49218;DHT22;35045;51.194;7.268;2023-12-20T09:02:18;5.00;99.90
49218;DHT22;35045;51.194;7.268;2023-12-20T09:04:45;5.00;99.90
49218;DHT22;35045;51.194;7.268;2023-12-20T09:07:24;5.00;99.90
49218;DHT22;35045;51.194;7.268;2023-12-20T09:09:51;4.90;99.90
49218;DHT22;35045;51.194;7.268;2023-12-20T09:12:21;5.00;99.90
49218;DHT22;35045;51.194;7.268;2023-12-20T09:14:49;5.00;99.90
49218;DHT22;35045;51.194;7.268;2023-12-20T09:17:17;5.00;99.90
49218;DHT22;35045;51.194;7.268;2023-12-20T09:19:44;5.00;99.90
49218;DHT22;35045;51.194;7.268;2023-12-20T09:22:10;5.00;99.90
49218;DHT22;35045;51.194;7.268;2023-12-20T09:24:37;5.00;99.90
49218;DHT22;35045;51.194;7.268;2023-12-20T09:27:05;5.00;99.90
49218;DHT22;35045;51.194;7.268;2023-12-20T09:29:32;5.00;99.90
49218;DHT22;35045;51.194;7.268;2023-12-20T09:31:58;5.00;99.90
49218;DHT22;35045;51.194;7.268;2023-12-20T09:34:24;5.00;99.90
49218;DHT22;35045;51.194;7.268;2023-12-20T09:36:52;5.00;99.90
49218;DHT22;35045;51.194;7.268;2023-12-20T09:39:19;4.90;99.90
49218;DHT22;35045;51.194;7.268;2023-12-20T09:41:59;4.90;99.90
49218;DHT22;35045;51.194;7.268;2023-12-20T09:44:26;4.90;99.90
49218;DHT22;35045;51.194;7.268;2023-12-20T09:46:53;5.00;99.90
49218;DHT22;35045;51.194;7.268;2023-12-20T09:49:21;4.90;99.90
49218;DHT22;35045;51.194;7.268;2023-12-20T09:51:47;5.00;99.90
49218;DHT22;35045;51.194;7.268;2023-12-20T09:54:14;5.00;99.90
49218;DHT22;35045;51.194;7.268;2023-12-20T09:56:41;5.00;99.90
49218;DHT22;35045;51.194;7.268;2023-12-20T09:59:08;5.00;99.90
49218;DHT22;35045;51.194;7.268;2023-12-20T10:01:35;5.00;99.90
49218;DHT22;35045;51.194;7.268;2023-12-20T10:04:05;5.10;99.90
49218;DHT22;35045;51.194;7.268;2023-12-20T10:06:36;5.10;99.90
49218;DHT22;35045;51.194;7.268;2023-12-20T10:09:03;5.10;99.90
49218;DHT22;35045;51.194;7.268;2023-12-20T10:11:30;5.10;99.90
49218;DHT22;35045;51.194;7.268;2023-12-20T10:13:59;5.00;99.90
49218;DHT22;35045;51.194;7.268;2023-12-20T10:16:27;5.00;99.90
49218;DHT22;35045;51.194;7.268;2023-12-20T10:18:54;5.10;99.90
49218;DHT22;35045;51.194;7.268;2023-12-20T10:21:21;5.00;99.90
49218;DHT22;35045;51.194;7.268;2023-12-20T10:23:49;5.00;99.90
49218;DHT22;35045;51.194;7.268;2023-12-20T10:26:22;5.00;99.90
49218;DHT22;35045;51.194;7.268;2023-12-20T10:28:55;5.00;99.90
49218;DHT22;35045;51.194;7.268;2023-12-20T10:31:34;5.10;99.90
49218;DHT22;35045;51.194;7.268;2023-12-20T10:34:02;5.00;99.90
49218;DHT22;35045;51.194;7.268;2023-12-20T10:36:31;5.00;99.90
49218;DHT22;35045;51.194;7.268;2023-12-20T10:38:57;5.10;99.90
49218;DHT22;35045;51.194;7.268;2023-12-20T10:41:30;5.10;99.90
49218;DHT22;35045;51.194;7.268;2023-12-20T10:44:01;5.10;99.90
49218;DHT22;35045;51.194;7.268;2023-12-20T10:46:27;5.10;99.90
49218;DHT22;35045;51.194;7.268;2023-12-20T10:48:57;5.10;99.90
49218;DHT22;35045;51.194;7.268;2023-12-20T10:51:24;5.10;99.90
49218;DHT22;35045;51.194;7.268;2023-12-20T10:53:54;5.10;99.90
49218;DHT22;35045;51.194;7.268;2023-12-20T10:56:20;5.10;99.90
49218;DHT22;35045;51.194;7.268;2023-12-20T10:58:48;5.10;99.90
49218;DHT22;35045;51.194;7.268;2023-12-20T11:01:16;5.10;99.90
49218;DHT22;35045;51.194;7.268;2023-12-20T11:03:53;5.10;99.90
49218;DHT22;35045;51.194;7.268;2023-12-20T11:09:14;5.00;99.90
49218;DHT22;35045;51.194;7.268;2023-12-20T11:14:54;5.00;99.90
49218;DHT22;35045;51.194;7.268;2023-12-20T11:17:23;4.90;99.90
49218;DHT22;35045;51.194;7.268;2023-12-20T11:22:20;5.00;99.90
49218;DHT22;35045;51.194;7.268;2023-12-20T11:24:48;5.00;99.90
49218;DHT22;35045;51.194;7.268;2023-12-20T11:27:14;5.00;99.90
49218;DHT22;35045;51.194;7.268;2023-12-20T11:29:41;5.10;99.90
49218;DHT22;35045;51.194;7.268;2023-12-20T11:35:00;5.10;99.90
49218;DHT22;35045;51.194;7.268;2023-12-20T11:37:30;5.10;99.90
49218;DHT22;35045;51.194;7.268;2023-12-20T11:42:49;5.10;99.90
49218;DHT22;35045;51.194;7.268;2023-12-20T11:45:21;5.10;99.90
49218;DHT22;35045;51.194;7.268;2023-12-20T11:47:49;5.10;99.90
49218;DHT22;35045;51.194;7.268;2023-12-20T11:50:22;5.10;99.90
49218;DHT22;35045;51.194;7.268;2023-12-20T11:52:50;5.10;99.90
49218;DHT22;35045;51.194;7.268;2023-12-20T11:55:17;5.10;99.90
49218;DHT22;35045;51.194;7.268;2023-12-20T11:57:44;5.10;99.90
49218;DHT22;35045;51.194;7.268;2023-12-20T12:00:11;5.10;99.90
49218;DHT22;35045;51.194;7.268;2023-12-20T12:02:37;5.10;99.90
49218;DHT22;35045;51.194;7.268;2023-12-20T12:05:04;5.20;99.90
49218;DHT22;35045;51.194;7.268;2023-12-20T12:07:34;5.10;99.90
49218;DHT22;35045;51.194;7.268;2023-12-20T12:10:01;5.10;99.90
49218;DHT22;35045;51.194;7.268;2023-12-20T12:12:29;5.10;99.90
49218;DHT22;35045;51.194;7.268;2023-12-20T12:14:56;5.10;99.90
49218;DHT22;35045;51.194;7.268;2023-12-20T12:17:23;5.10;99.90
49218;DHT22;35045;51.194;7.268;2023-12-20T12:19:49;5.10;99.90
49218;DHT22;35045;51.194;7.268;2023-12-20T12:22:16;5.20;99.90
49218;DHT22;35045;51.194;7.268;2023-12-20T12:24:47;5.20;99.90
49218;DHT22;35045;51.194;7.268;2023-12-20T12:27:13;5.10;99.90
49218;DHT22;35045;51.194;7.268;2023-12-20T12:29:40;5.20;99.90
49218;DHT22;35045;51.194;7.268;2023-12-20T12:32:07;5.10;99.90
49218;DHT22;35045;51.194;7.268;2023-12-20T12:34:37;5.20;99.90
49218;DHT22;35045;51.194;7.268;2023-12-20T12:37:04;5.20;99.90
49218;DHT22;35045;51.194;7.268;2023-12-20T12:39:30;5.20;99.90
49218;DHT22;35045;51.194;7.268;2023-12-20T12:41:57;5.10;99.90
49218;DHT22;35045;51.194;7.268;2023-12-20T12:44:23;5.10;99.90
49218;DHT22;35045;51.194;7.268;2023-12-20T12:46:51;5.10;99.90
49218;DHT22;35045;51.194;7.268;2023-12-20T12:49:22;5.00;99.90
49218;DHT22;35045;51.194;7.268;2023-12-20T12:51:48;5.00;99.90
49218;DHT22;35045;51.194;7.268;2023-12-20T12:54:15;5.00;99.90
49218;DHT22;35045;51.194;7.268;2023-12-20T12:56:43;5.00;99.90
49218;DHT22;35045;51.194;7.268;2023-12-20T12:59:10;5.00;99.90
49218;DHT22;35045;51.194;7.268;2023-12-20T13:01:37;5.10;99.90
49218;DHT22;35045;51.194;7.268;2023-12-20T13:04:05;5.10;99.90
49218;DHT22;35045;51.194;7.268;2023-12-20T13:06:37;5.10;99.90
49218;DHT22;35045;51.194;7.268;2023-12-20T13:09:04;5.10;99.90
49218;DHT22;35045;51.194;7.268;2023-12-20T13:11:31;5.10;99.90
49218;DHT22;35045;51.194;7.268;2023-12-20T13:13:57;5.10;99.90
49218;DHT22;35045;51.194;7.268;2023-12-20T13:16:24;5.10;99.90
49218;DHT22;35045;51.194;7.268;2023-12-20T13:18:51;5.20;99.90
49218;DHT22;35045;51.194;7.268;2023-12-20T13:21:17;5.20;99.90
49218;DHT22;35045;51.194;7.268;2023-12-20T13:23:44;5.10;99.90
49218;DHT22;35045;51.194;7.268;2023-12-20T13:26:10;5.10;99.90
49218;DHT22;35045;51.194;7.268;2023-12-20T13:28:37;5.20;99.90
49218;DHT22;35045;51.194;7.268;2023-12-20T13:31:03;5.10;99.90
49218;DHT22;35045;51.194;7.268;2023-12-20T13:33:30;5.20;99.90
49218;DHT22;35045;51.194;7.268;2023-12-20T13:35:56;5.20;99.90
49218;DHT22;35045;51.194;7.268;2023-12-20T13:38:24;5.20;99.90
49218;DHT22;35045;51.194;7.268;2023-12-20T13:40:50;5.20;99.90
49218;DHT22;35045;51.194;7.268;2023-12-20T13:43:17;5.20;99.90
49218;DHT22;35045;51.194;7.268;2023-12-20T13:45:47;5.20;99.90
49218;DHT22;35045;51.194;7.268;2023-12-20T13:48:13;5.30;99.90
49218;DHT22;35045;51.194;7.268;2023-12-20T13:50:40;5.20;99.90
49218;DHT22;35045;51.194;7.268;2023-12-20T13:53:06;5.20;99.90
49218;DHT22;35045;51.194;7.268;2023-12-20T13:55:33;5.20;99.90
49218;DHT22;35045;51.194;7.268;2023-12-20T13:57:59;5.20;99.90
49218;DHT22;35045;51.194;7.268;2023-12-20T14:00:25;5.30;99.90
49218;DHT22;35045;51.194;7.268;2023-12-20T14:02:51;5.30;99.90
49218;DHT22;35045;51.194;7.268;2023-12-20T14:05:17;5.20;99.90
49218;DHT22;35045;51.194;7.268;2023-12-20T14:07:44;5.20;99.90
49218;DHT22;35045;51.194;7.268;2023-12-20T14:10:12;5.30;99.90
49218;DHT22;35045;51.194;7.268;2023-12-20T14:12:39;5.30;99.90
49218;DHT22;35045;51.194;7.268;2023-12-20T14:15:06;5.30;99.90
49218;DHT22;35045;51.194;7.268;2023-12-20T14:17:40;5.30;99.90
49218;DHT22;35045;51.194;7.268;2023-12-20T14:20:08;5.30;99.90
49218;DHT22;35045;51.194;7.268;2023-12-20T14:22:35;5.30;99.90
49218;DHT22;35045;51.194;7.268;2023-12-20T14:25:02;5.30;99.90
49218;DHT22;35045;51.194;7.268;2023-12-20T14:27:28;5.30;99.90
49218;DHT22;35045;51.194;7.268;2023-12-20T14:29:55;5.30;99.90
49218;DHT22;35045;51.194;7.268;2023-12-20T14:32:21;5.30;99.90
49218;DHT22;35045;51.194;7.268;2023-12-20T14:34:47;5.30;99.90
49218;DHT22;35045;51.194;7.268;2023-12-20T14:37:14;5.30;99.90
49218;DHT22;35045;51.194;7.268;2023-12-20T14:39:40;5.30;99.90
49218;DHT22;35045;51.194;7.268;2023-12-20T14:42:08;5.40;99.90
49218;DHT22;35045;51.194;7.268;2023-12-20T14:44:43;5.30;99.90
49218;DHT22;35045;51.194;7.268;2023-12-20T14:47:09;5.40;99.90
49218;DHT22;35045;51.194;7.268;2023-12-20T14:49:36;5.30;99.90
49218;DHT22;35045;51.194;7.268;2023-12-20T14:52:03;5.30;99.90
49218;DHT22;35045;51.194;7.268;2023-12-20T14:54:30;5.40;99.90
49218;DHT22;35045;51.194;7.268;2023-12-20T14:56:57;5.40;99.90
49218;DHT22;35045;51.194;7.268;2023-12-20T14:59:24;5.40;99.90
49218;DHT22;35045;51.194;7.268;2023-12-20T15:01:50;5.40;99.90
49218;DHT22;35045;51.194;7.268;2023-12-20T15:04:16;5.40;99.90
49218;DHT22;35045;51.194;7.268;2023-12-20T15:06:43;5.40;99.90
49218;DHT22;35045;51.194;7.268;2023-12-20T15:09:11;5.50;99.90
49218;DHT22;35045;51.194;7.268;2023-12-20T15:11:37;5.50;99.90
49218;DHT22;35045;51.194;7.268;2023-12-20T15:14:03;5.50;99.90
49218;DHT22;35045;51.194;7.268;2023-12-20T15:16:30;5.50;99.90
49218;DHT22;35045;51.194;7.268;2023-12-20T15:18:56;5.50;99.90
49218;DHT22;35045;51.194;7.268;2023-12-20T15:21:24;5.50;99.90
49218;DHT22;35045;51.194;7.268;2023-12-20T15:23:58;5.50;99.90
49218;DHT22;35045;51.194;7.268;2023-12-20T15:26:32;5.40;99.90
49218;DHT22;35045;51.194;7.268;2023-12-20T15:29:00;5.50;99.90
49218;DHT22;35045;51.194;7.268;2023-12-20T15:31:27;5.60;99.90
49218;DHT22;35045;51.194;7.268;2023-12-20T15:33:54;5.60;99.90
49218;DHT22;35045;51.194;7.268;2023-12-20T15:36:21;5.60;99.90
49218;DHT22;35045;51.194;7.268;2023-12-20T15:38:48;5.60;99.90
49218;DHT22;35045;51.194;7.268;2023-12-20T15:41:21;5.60;99.90
49218;DHT22;35045;51.194;7.268;2023-12-20T15:43:47;5.70;99.90
49218;DHT22;35045;51.194;7.268;2023-12-20T15:46:14;5.60;99.90
49218;DHT22;35045;51.194;7.268;2023-12-20T15:48:41;5.60;99.90
49218;DHT22;35045;51.194;7.268;2023-12-20T15:51:11;5.60;99.90
49218;DHT22;35045;51.194;7.268;2023-12-20T15:53:38;5.60;99.90
49218;DHT22;35045;51.194;7.268;2023-12-20T15:56:04;5.60;99.90